Airfield :
LOGIN :

Register | Disclaimer

   EN    FR    IT 

 










Legend :    VFR   Marginal VFR   IFR   Intensive IFR   Very Intensive IFR
Visi :
Ceiling :
>= 8 km
>= 3000ft
5 to 8 km
1000 to 3000 ft
1500m to 5 km
500 to 1000 ft
800 to 1500m
200 to 500 ft
< 800m
< 200 ft
Symbols :   Thunderstorms  Fog  Heavy snow  Heavy precipitations  Wind > 20 kt
SIGMETs :     Misc.  Thunderstorms  Icing  Turbulence  Mountain Waves  Volcanic Ashes






- Airport Elevation : 102 ft
- IATA code : CNG


LFBG - Cognac

CURRENT METAR :
  • 120930Z AUTO 34012KT 9999 -RA VCTS FEW016/// SCT052/// BKN068/// ///CB 20/19 Q1012 TEMPO 4000 TSRA BECMG 27010KT NSC

EXPIRED METARs :
  • 120900Z AUTO VRB03KT 9999 TS FEW038/// BKN050/// BKN076/// ///CB 21/19 Q1013 TEMPO 4000 TSRA
  • 120830Z AUTO 29011KT 9999 -TSRA FEW027/// BKN098/// OVC110/// ///CB 21/19 Q1012 TEMPO BKN010 BKN080CB BKN120
  • 120800Z AUTO 26007KT 220V310 9999 -RA VCTS FEW016/// SCT046/// BKN070/// ///CB 22/20 Q1013 TEMPO SHRA BKN010 BKN080CB BKN120
  • 120730Z AUTO 16012KT 9999 TS FEW017/// SCT078/// BKN090/// ///CB 23/21 Q1013 TEMPO 27005KT SHRA BKN010 BKN080CB BKN120
  • 120700Z AUTO 26006KT 220V290 9999 FEW042/// BKN094/// BKN110/// ///TCU 23/21 Q1010 TEMPO SHRA BKN010 BKN080CB BKN120

TAF TAF LFBG
Valid from the 12 at 09:00 until the 13 at 09:00 UTC


120800Z 1209/1309 27010KT CAVOK
TEMPO 1209/1211 VRB12G25KT 4000 TSRA FEW020 BKN080CB
TEMPO 1214/1216 SHRA BKN070TCU
TEMPO 1222/1309 4000 TSRA BKN050CB



MET'MAP, your aeronautical weather chart ! - Copyright ORBIFLY December 2007 - Disclaimer

ORBIFLY MET'MAP TEAM :

Programming & Development : Alexandra Zaïnal
Concept & original design : Baudouin d'Aumeries
Assistance for programming : Marc-Olivier Méhu
Technical & hardware support : Manuel Goepfert

Contact : metmap@orbifly.com




SOURCES & CREDITS :

   NOAA